sensor_id;sensor_type;location;lat;lon;timestamp;pressure;altitude;pressure_sealevel;temperature;humidity
80566;BME280;69915;54.862;10.730;2024-03-22T00:01:09;101593.59;;;7.52;100.00
80566;BME280;69915;54.862;10.730;2024-03-22T00:03:34;101590.63;;;7.54;100.00
80566;BME280;69915;54.862;10.730;2024-03-22T00:06:00;101594.00;;;7.61;100.00
80566;BME280;69915;54.862;10.730;2024-03-22T00:08:25;101591.78;;;7.58;100.00
80566;BME280;69915;54.862;10.730;2024-03-22T00:10:51;101583.03;;;7.56;100.00
80566;BME280;69915;54.862;10.730;2024-03-22T00:13:16;101580.59;;;7.54;100.00
80566;BME280;69915;54.862;10.730;2024-03-22T00:15:42;101569.69;;;7.54;100.00
80566;BME280;69915;54.862;10.730;2024-03-22T00:18:09;101544.38;;;7.54;100.00
80566;BME280;69915;54.862;10.730;2024-03-22T00:20:35;101549.88;;;7.59;100.00
80566;BME280;69915;54.862;10.730;2024-03-22T00:23:00;101541.78;;;7.64;100.00
80566;BME280;69915;54.862;10.730;2024-03-22T00:25:26;101537.03;;;7.54;100.00
80566;BME280;69915;54.862;10.730;2024-03-22T00:27:52;101533.53;;;7.59;100.00
80566;BME280;69915;54.862;10.730;2024-03-22T00:30:17;101530.41;;;7.67;100.00
80566;BME280;69915;54.862;10.730;2024-03-22T00:32:43;101519.38;;;7.57;100.00
80566;BME280;69915;54.862;10.730;2024-03-22T00:35:12;101508.50;;;7.57;100.00
80566;BME280;69915;54.862;10.730;2024-03-22T00:37:38;101514.06;;;7.67;100.00
80566;BME280;69915;54.862;10.730;2024-03-22T00:40:03;101498.81;;;7.66;100.00
80566;BME280;69915;54.862;10.730;2024-03-22T00:42:29;101506.41;;;7.64;100.00
80566;BME280;69915;54.862;10.730;2024-03-22T00:44:55;101502.03;;;7.63;100.00
80566;BME280;69915;54.862;10.730;2024-03-22T00:47:22;101487.88;;;7.61;100.00
80566;BME280;69915;54.862;10.730;2024-03-22T00:49:47;101479.13;;;7.59;100.00
80566;BME280;69915;54.862;10.730;2024-03-22T00:52:13;101489.00;;;7.65;100.00
80566;BME280;69915;54.862;10.730;2024-03-22T00:54:39;101485.72;;;7.63;100.00
80566;BME280;69915;54.862;10.730;2024-03-22T00:57:06;101465.88;;;7.67;100.00
80566;BME280;69915;54.862;10.730;2024-03-22T00:59:32;101473.75;;;7.64;100.00
80566;BME280;69915;54.862;10.730;2024-03-22T01:01:58;101455.31;;;7.71;100.00
80566;BME280;69915;54.862;10.730;2024-03-22T01:04:24;101454.19;;;7.67;100.00
80566;BME280;69915;54.862;10.730;2024-03-22T01:06:49;101455.25;;;7.66;100.00
80566;BME280;69915;54.862;10.730;2024-03-22T01:09:15;101450.06;;;7.64;100.00
80566;BME280;69915;54.862;10.730;2024-03-22T01:11:40;101456.41;;;7.70;100.00
80566;BME280;69915;54.862;10.730;2024-03-22T01:14:06;101450.97;;;7.70;100.00
80566;BME280;69915;54.862;10.730;2024-03-22T01:16:32;101446.03;;;7.67;100.00
80566;BME280;69915;54.862;10.730;2024-03-22T01:18:57;101450.97;;;7.70;100.00
80566;BME280;69915;54.862;10.730;2024-03-22T01:21:23;101450.69;;;7.72;100.00
80566;BME280;69915;54.862;10.730;2024-03-22T01:23:52;101442.78;;;7.70;100.00
80566;BME280;69915;54.862;10.730;2024-03-22T01:26:17;101440.50;;;7.62;100.00
80566;BME280;69915;54.862;10.730;2024-03-22T01:28:43;101441.66;;;7.66;100.00
80566;BME280;69915;54.862;10.730;2024-03-22T01:31:08;101434.03;;;7.68;100.00
80566;BME280;69915;54.862;10.730;2024-03-22T01:33:34;101441.97;;;7.70;100.00
80566;BME280;69915;54.862;10.730;2024-03-22T01:35:59;101431.41;;;7.73;100.00
80566;BME280;69915;54.862;10.730;2024-03-22T01:38:25;101437.16;;;7.77;100.00
80566;BME280;69915;54.862;10.730;2024-03-22T01:40:51;101423.25;;;7.78;100.00
80566;BME280;69915;54.862;10.730;2024-03-22T01:43:16;101414.28;;;7.78;100.00
80566;BME280;69915;54.862;10.730;2024-03-22T01:45:42;101405.34;;;7.82;100.00
80566;BME280;69915;54.862;10.730;2024-03-22T01:48:08;101414.56;;;7.76;100.00
80566;BME280;69915;54.862;10.730;2024-03-22T01:50:33;101425.75;;;7.80;100.00
80566;BME280;69915;54.862;10.730;2024-03-22T01:53:00;101414.06;;;7.84;100.00
80566;BME280;69915;54.862;10.730;2024-03-22T01:55:26;101407.56;;;7.85;100.00
80566;BME280;69915;54.862;10.730;2024-03-22T01:57:52;101417.09;;;7.88;100.00
80566;BME280;69915;54.862;10.730;2024-03-22T02:00:19;101413.56;;;7.87;100.00
80566;BME280;69915;54.862;10.730;2024-03-22T02:02:44;101403.72;;;7.86;100.00
80566;BME280;69915;54.862;10.730;2024-03-22T02:05:14;101407.03;;;7.88;100.00
80566;BME280;69915;54.862;10.730;2024-03-22T02:07:41;101400.25;;;7.91;100.00
80566;BME280;69915;54.862;10.730;2024-03-22T02:10:08;101397.56;;;7.96;100.00
80566;BME280;69915;54.862;10.730;2024-03-22T02:12:37;101388.00;;;7.93;100.00
80566;BME280;69915;54.862;10.730;2024-03-22T02:15:03;101393.25;;;8.00;100.00
80566;BME280;69915;54.862;10.730;2024-03-22T02:17:28;101385.59;;;7.97;100.00
80566;BME280;69915;54.862;10.730;2024-03-22T02:19:54;101376.88;;;7.95;100.00
80566;BME280;69915;54.862;10.730;2024-03-22T02:22:19;101367.88;;;7.94;100.00
80566;BME280;69915;54.862;10.730;2024-03-22T02:24:45;101361.31;;;7.90;100.00
80566;BME280;69915;54.862;10.730;2024-03-22T02:27:10;101362.97;;;7.91;100.00
80566;BME280;69915;54.862;10.730;2024-03-22T02:29:36;101348.53;;;7.91;100.00
80566;BME280;69915;54.862;10.730;2024-03-22T02:32:01;101345.28;;;7.94;100.00
80566;BME280;69915;54.862;10.730;2024-03-22T02:34:28;101342.78;;;7.92;100.00
80566;BME280;69915;54.862;10.730;2024-03-22T02:36:54;101342.78;;;7.87;100.00
80566;BME280;69915;54.862;10.730;2024-03-22T02:39:19;101328.94;;;7.94;100.00
80566;BME280;69915;54.862;10.730;2024-03-22T02:41:45;101327.50;;;7.86;100.00
80566;BME280;69915;54.862;10.730;2024-03-22T02:44:11;101334.59;;;7.87;100.00
80566;BME280;69915;54.862;10.730;2024-03-22T02:46:36;101326.72;;;7.86;100.00
80566;BME280;69915;54.862;10.730;2024-03-22T02:49:02;101341.41;;;7.85;100.00
80566;BME280;69915;54.862;10.730;2024-03-22T02:51:27;101327.28;;;7.93;100.00
80566;BME280;69915;54.862;10.730;2024-03-22T02:53:53;101329.69;;;7.84;100.00
80566;BME280;69915;54.862;10.730;2024-03-22T02:56:18;101324.56;;;7.93;100.00
80566;BME280;69915;54.862;10.730;2024-03-22T02:58:44;101325.41;;;7.93;100.00
80566;BME280;69915;54.862;10.730;2024-03-22T03:01:09;101306.34;;;7.98;100.00
80566;BME280;69915;54.862;10.730;2024-03-22T03:03:35;101307.97;;;7.94;100.00
80566;BME280;69915;54.862;10.730;2024-03-22T03:06:00;101305.28;;;7.99;100.00
80566;BME280;69915;54.862;10.730;2024-03-22T03:08:26;101301.22;;;8.02;100.00
80566;BME280;69915;54.862;10.730;2024-03-22T03:10:52;101302.00;;;7.97;100.00
80566;BME280;69915;54.862;10.730;2024-03-22T03:13:18;101292.22;;;8.01;100.00
80566;BME280;69915;54.862;10.730;2024-03-22T03:15:43;101295.53;;;8.03;100.00
80566;BME280;69915;54.862;10.730;2024-03-22T03:18:09;101288.94;;;7.99;100.00
80566;BME280;69915;54.862;10.730;2024-03-22T03:20:35;101283.28;;;8.06;100.00
80566;BME280;69915;54.862;10.730;2024-03-22T03:23:00;101275.66;;;8.08;100.00
80566;BME280;69915;54.862;10.730;2024-03-22T03:25:27;101264.50;;;8.09;100.00
80566;BME280;69915;54.862;10.730;2024-03-22T03:27:52;101258.44;;;7.97;100.00
80566;BME280;69915;54.862;10.730;2024-03-22T03:30:18;101255.44;;;7.99;100.00
80566;BME280;69915;54.862;10.730;2024-03-22T03:32:44;101252.25;;;8.07;100.00
80566;BME280;69915;54.862;10.730;2024-03-22T03:35:09;101238.03;;;8.00;100.00
80566;BME280;69915;54.862;10.730;2024-03-22T03:37:35;101240.22;;;8.03;100.00
80566;BME280;69915;54.862;10.730;2024-03-22T03:40:00;101235.34;;;8.05;100.00
80566;BME280;69915;54.862;10.730;2024-03-22T03:42:26;101231.78;;;7.99;100.00
80566;BME280;69915;54.862;10.730;2024-03-22T03:44:52;101230.47;;;8.07;100.00
80566;BME280;69915;54.862;10.730;2024-03-22T03:47:17;101235.09;;;8.06;100.00
80566;BME280;69915;54.862;10.730;2024-03-22T03:49:45;101230.72;;;8.10;100.00
80566;BME280;69915;54.862;10.730;2024-03-22T03:52:42;101228.88;;;8.16;100.00
80566;BME280;69915;54.862;10.730;2024-03-22T03:55:09;101216.91;;;8.22;100.00
80566;BME280;69915;54.862;10.730;2024-03-22T03:57:35;101217.16;;;8.20;100.00
80566;BME280;69915;54.862;10.730;2024-03-22T04:00:01;101215.28;;;8.21;100.00
80566;BME280;69915;54.862;10.730;2024-03-22T04:02:27;101210.38;;;8.23;100.00
80566;BME280;69915;54.862;10.730;2024-03-22T04:04:53;101210.66;;;8.27;100.00
80566;BME280;69915;54.862;10.730;2024-03-22T04:07:21;101211.47;;;8.27;100.00
80566;BME280;69915;54.862;10.730;2024-03-22T04:09:47;101207.41;;;8.25;100.00
80566;BME280;69915;54.862;10.730;2024-03-22T04:12:13;101204.16;;;8.28;100.00
80566;BME280;69915;54.862;10.730;2024-03-22T04:14:39;101194.59;;;8.25;100.00
80566;BME280;69915;54.862;10.730;2024-03-22T04:17:04;101192.19;;;8.29;100.00
80566;BME280;69915;54.862;10.730;2024-03-22T04:19:30;101185.38;;;8.31;100.00
80566;BME280;69915;54.862;10.730;2024-03-22T04:21:55;101179.66;;;8.33;100.00
80566;BME280;69915;54.862;10.730;2024-03-22T04:24:21;101183.41;;;8.27;100.00
80566;BME280;69915;54.862;10.730;2024-03-22T04:26:47;101180.75;;;8.32;100.00
80566;BME280;69915;54.862;10.730;2024-03-22T04:29:12;101164.69;;;8.35;100.00
80566;BME280;69915;54.862;10.730;2024-03-22T04:31:38;101166.03;;;8.28;100.00
80566;BME280;69915;54.862;10.730;2024-03-22T04:34:03;101154.06;;;8.34;100.00
80566;BME280;69915;54.862;10.730;2024-03-22T04:36:31;101156.78;;;8.29;100.00
80566;BME280;69915;54.862;10.730;2024-03-22T04:38:57;101148.31;;;8.30;100.00
80566;BME280;69915;54.862;10.730;2024-03-22T04:41:22;101144.78;;;8.30;100.00
80566;BME280;69915;54.862;10.730;2024-03-22T04:43:48;101153.78;;;8.30;100.00
80566;BME280;69915;54.862;10.730;2024-03-22T04:46:13;101148.63;;;8.34;100.00
80566;BME280;69915;54.862;10.730;2024-03-22T04:48:39;101142.09;;;8.40;100.00
80566;BME280;69915;54.862;10.730;2024-03-22T04:51:04;101141.03;;;8.41;100.00
80566;BME280;69915;54.862;10.730;2024-03-22T04:53:30;101132.28;;;8.34;100.00
80566;BME280;69915;54.862;10.730;2024-03-22T04:55:56;101132.53;;;8.32;100.00
80566;BME280;69915;54.862;10.730;2024-03-22T04:58:21;101129.56;;;8.39;100.00
80566;BME280;69915;54.862;10.730;2024-03-22T05:00:48;101120.84;;;8.37;100.00
80566;BME280;69915;54.862;10.730;2024-03-22T05:03:14;101114.03;;;8.39;100.00
80566;BME280;69915;54.862;10.730;2024-03-22T05:05:41;101119.75;;;8.43;100.00
80566;BME280;69915;54.862;10.730;2024-03-22T05:08:08;101102.88;;;8.46;100.00
80566;BME280;69915;54.862;10.730;2024-03-22T05:10:34;101114.88;;;8.50;100.00
80566;BME280;69915;54.862;10.730;2024-03-22T05:12:59;101129.59;;;8.49;100.00
80566;BME280;69915;54.862;10.730;2024-03-22T05:15:25;101117.31;;;8.51;100.00
80566;BME280;69915;54.862;10.730;2024-03-22T05:17:52;101110.50;;;8.54;100.00
80566;BME280;69915;54.862;10.730;2024-03-22T05:20:18;101105.34;;;8.57;100.00
80566;BME280;69915;54.862;10.730;2024-03-22T05:22:44;101098.81;;;8.58;100.00
80566;BME280;69915;54.862;10.730;2024-03-22T05:25:10;101108.06;;;8.57;100.00
80566;BME280;69915;54.862;10.730;2024-03-22T05:27:36;101114.88;;;8.60;100.00
80566;BME280;69915;54.862;10.730;2024-03-22T05:30:02;101098.25;;;8.66;100.00
80566;BME280;69915;54.862;10.730;2024-03-22T05:32:29;101101.81;;;8.67;100.00
80566;BME280;69915;54.862;10.730;2024-03-22T05:34:55;101099.09;;;8.67;100.00
80566;BME280;69915;54.862;10.730;2024-03-22T05:37:21;101100.19;;;8.71;100.00
80566;BME280;69915;54.862;10.730;2024-03-22T05:39:46;101102.34;;;8.69;100.00
80566;BME280;69915;54.862;10.730;2024-03-22T05:42:12;101100.44;;;8.69;100.00
80566;BME280;69915;54.862;10.730;2024-03-22T05:44:38;101105.34;;;8.77;100.00
80566;BME280;69915;54.862;10.730;2024-03-22T05:47:03;101100.44;;;8.69;100.00
80566;BME280;69915;54.862;10.730;2024-03-22T05:49:29;101109.44;;;8.75;100.00
80566;BME280;69915;54.862;10.730;2024-03-22T05:51:55;101099.66;;;8.74;100.00
80566;BME280;69915;54.862;10.730;2024-03-22T05:54:20;101097.44;;;8.76;100.00
80566;BME280;69915;54.862;10.730;2024-03-22T05:56:46;101099.09;;;8.77;100.00
80566;BME280;69915;54.862;10.730;2024-03-22T05:59:12;101090.63;;;8.79;100.00
80566;BME280;69915;54.862;10.730;2024-03-22T06:01:38;101089.00;;;8.83;100.00
80566;BME280;69915;54.862;10.730;2024-03-22T06:04:04;101084.09;;;8.85;100.00
80566;BME280;69915;54.862;10.730;2024-03-22T06:06:32;101084.94;;;8.80;100.00
80566;BME280;69915;54.862;10.730;2024-03-22T06:08:58;101080.56;;;8.89;100.00
80566;BME280;69915;54.862;10.730;2024-03-22T06:11:25;101078.63;;;8.85;100.00
80566;BME280;69915;54.862;10.730;2024-03-22T06:13:51;101082.72;;;8.87;100.00
80566;BME280;69915;54.862;10.730;2024-03-22T06:16:17;101088.75;;;8.89;100.00
80566;BME280;69915;54.862;10.730;2024-03-22T06:18:42;101070.75;;;8.83;100.00
80566;BME280;69915;54.862;10.730;2024-03-22T06:21:08;101074.00;;;8.85;100.00
80566;BME280;69915;54.862;10.730;2024-03-22T06:23:34;101078.94;;;8.83;100.00
80566;BME280;69915;54.862;10.730;2024-03-22T06:25:59;101071.56;;;8.89;100.00
80566;BME280;69915;54.862;10.730;2024-03-22T06:28:27;101069.66;;;8.79;100.00
80566;BME280;69915;54.862;10.730;2024-03-22T06:30:53;101070.72;;;8.88;100.00
80566;BME280;69915;54.862;10.730;2024-03-22T06:33:19;101069.09;;;8.92;100.00
80566;BME280;69915;54.862;10.730;2024-03-22T06:35:46;101074.28;;;8.89;100.00
80566;BME280;69915;54.862;10.730;2024-03-22T06:38:12;101085.47;;;8.92;100.00
80566;BME280;69915;54.862;10.730;2024-03-22T06:40:37;101077.00;;;8.89;100.00
80566;BME280;69915;54.862;10.730;2024-03-22T06:43:03;101071.84;;;8.92;100.00
80566;BME280;69915;54.862;10.730;2024-03-22T06:45:29;101059.84;;;8.83;100.00
80566;BME280;69915;54.862;10.730;2024-03-22T06:47:55;101068.81;;;8.94;100.00
80566;BME280;69915;54.862;10.730;2024-03-22T06:50:20;101060.13;;;8.87;100.00
80566;BME280;69915;54.862;10.730;2024-03-22T06:52:53;101053.28;;;8.89;100.00
80566;BME280;69915;54.862;10.730;2024-03-22T06:55:19;101046.19;;;8.93;100.00
80566;BME280;69915;54.862;10.730;2024-03-22T06:57:49;101046.72;;;8.90;100.00
80566;BME280;69915;54.862;10.730;2024-03-22T07:00:16;101046.47;;;8.92;100.00
80566;BME280;69915;54.862;10.730;2024-03-22T07:02:42;101039.09;;;9.07;100.00
80566;BME280;69915;54.862;10.730;2024-03-22T07:05:08;101039.63;;;9.04;100.00
80566;BME280;69915;54.862;10.730;2024-03-22T07:07:35;101045.59;;;9.11;100.00
80566;BME280;69915;54.862;10.730;2024-03-22T07:10:01;101034.69;;;9.21;100.00
80566;BME280;69915;54.862;10.730;2024-03-22T07:12:27;101021.59;;;9.18;100.00
80566;BME280;69915;54.862;10.730;2024-03-22T07:14:53;101027.03;;;9.23;100.00
80566;BME280;69915;54.862;10.730;2024-03-22T07:17:18;101025.38;;;9.38;100.00
80566;BME280;69915;54.862;10.730;2024-03-22T07:19:49;101026.75;;;9.35;100.00
80566;BME280;69915;54.862;10.730;2024-03-22T07:22:15;101005.72;;;9.41;100.00
80566;BME280;69915;54.862;10.730;2024-03-22T07:24:41;101015.25;;;9.43;100.00
80566;BME280;69915;54.862;10.730;2024-03-22T07:27:06;101005.75;;;9.36;100.00
80566;BME280;69915;54.862;10.730;2024-03-22T07:29:32;101001.31;;;9.50;100.00
80566;BME280;69915;54.862;10.730;2024-03-22T07:31:57;100988.19;;;9.52;100.00
80566;BME280;69915;54.862;10.730;2024-03-22T07:34:23;100982.16;;;9.55;100.00
80566;BME280;69915;54.862;10.730;2024-03-22T07:36:48;100980.78;;;9.62;100.00
80566;BME280;69915;54.862;10.730;2024-03-22T07:39:14;100993.09;;;9.60;100.00
80566;BME280;69915;54.862;10.730;2024-03-22T07:41:40;100997.38;;;9.71;100.00
80566;BME280;69915;54.862;10.730;2024-03-22T07:44:06;101010.50;;;9.69;100.00
80566;BME280;69915;54.862;10.730;2024-03-22T07:46:31;101008.53;;;9.79;100.00
80566;BME280;69915;54.862;10.730;2024-03-22T07:48:57;100989.94;;;9.87;100.00
80566;BME280;69915;54.862;10.730;2024-03-22T07:51:23;100979.28;;;9.85;100.00
80566;BME280;69915;54.862;10.730;2024-03-22T07:53:48;100991.34;;;9.79;100.00
80566;BME280;69915;54.862;10.730;2024-03-22T07:56:14;100984.25;;;9.73;100.00
80566;BME280;69915;54.862;10.730;2024-03-22T07:58:41;100977.75;;;9.69;100.00
80566;BME280;69915;54.862;10.730;2024-03-22T08:01:06;100981.56;;;9.68;100.00
80566;BME280;69915;54.862;10.730;2024-03-22T08:03:32;100992.72;;;9.76;100.00
80566;BME280;69915;54.862;10.730;2024-03-22T08:05:57;100994.63;;;9.81;100.00
80566;BME280;69915;54.862;10.730;2024-03-22T08:08:23;100995.69;;;9.80;100.00
80566;BME280;69915;54.862;10.730;2024-03-22T08:10:48;100991.06;;;9.80;100.00
80566;BME280;69915;54.862;10.730;2024-03-22T08:13:14;100987.50;;;9.80;100.00
80566;BME280;69915;54.862;10.730;2024-03-22T08:15:40;100976.53;;;9.90;100.00
80566;BME280;69915;54.862;10.730;2024-03-22T08:18:06;100967.16;;;10.01;100.00
80566;BME280;69915;54.862;10.730;2024-03-22T08:20:31;100968.75;;;10.17;100.00
80566;BME280;69915;54.862;10.730;2024-03-22T08:22:59;100958.81;;;10.26;100.00
80566;BME280;69915;54.862;10.730;2024-03-22T08:25:25;100957.72;;;10.27;100.00
80566;BME280;69915;54.862;10.730;2024-03-22T08:27:51;100963.16;;;10.32;100.00
80566;BME280;69915;54.862;10.730;2024-03-22T08:30:20;100962.59;;;10.35;100.00
80566;BME280;69915;54.862;10.730;2024-03-22T08:32:46;100953.19;;;10.47;100.00
80566;BME280;69915;54.862;10.730;2024-03-22T08:35:12;100960.34;;;10.43;100.00
80566;BME280;69915;54.862;10.730;2024-03-22T08:37:37;100947.25;;;10.40;100.00
80566;BME280;69915;54.862;10.730;2024-03-22T08:40:03;100938.00;;;10.30;100.00
80566;BME280;69915;54.862;10.730;2024-03-22T08:42:30;100943.31;;;10.51;100.00
80566;BME280;69915;54.862;10.730;2024-03-22T08:44:55;100941.47;;;10.41;100.00
80566;BME280;69915;54.862;10.730;2024-03-22T08:47:21;100942.09;;;10.33;100.00
80566;BME280;69915;54.862;10.730;2024-03-22T08:49:46;100935.31;;;10.25;100.00
80566;BME280;69915;54.862;10.730;2024-03-22T08:52:12;100942.22;;;10.18;100.00
80566;BME280;69915;54.862;10.730;2024-03-22T08:54:38;100946.81;;;10.22;100.00
80566;BME280;69915;54.862;10.730;2024-03-22T08:57:03;100939.69;;;10.26;100.00
80566;BME280;69915;54.862;10.730;2024-03-22T08:59:29;100944.03;;;10.27;100.00
80566;BME280;69915;54.862;10.730;2024-03-22T09:01:54;100929.78;;;10.35;100.00
80566;BME280;69915;54.862;10.730;2024-03-22T09:04:20;100922.03;;;10.48;100.00
80566;BME280;69915;54.862;10.730;2024-03-22T09:06:46;100911.44;;;10.65;100.00
80566;BME280;69915;54.862;10.730;2024-03-22T09:09:12;100912.66;;;11.06;100.00
80566;BME280;69915;54.862;10.730;2024-03-22T09:11:37;100900.59;;;11.07;100.00
80566;BME280;69915;54.862;10.730;2024-03-22T09:14:03;100903.91;;;11.28;100.00
80566;BME280;69915;54.862;10.730;2024-03-22T09:16:29;100893.00;;;11.23;100.00
80566;BME280;69915;54.862;10.730;2024-03-22T09:18:55;100888.78;;;11.12;100.00
80566;BME280;69915;54.862;10.730;2024-03-22T09:21:21;100884.81;;;10.99;100.00
80566;BME280;69915;54.862;10.730;2024-03-22T09:23:47;100882.84;;;11.05;100.00
80566;BME280;69915;54.862;10.730;2024-03-22T09:26:12;100883.66;;;11.05;100.00
80566;BME280;69915;54.862;10.730;2024-03-22T09:28:38;100881.69;;;10.87;100.00
80566;BME280;69915;54.862;10.730;2024-03-22T09:31:04;100883.19;;;10.98;100.00
80566;BME280;69915;54.862;10.730;2024-03-22T09:33:33;100876.09;;;10.97;100.00
80566;BME280;69915;54.862;10.730;2024-03-22T09:35:58;100872.28;;;11.17;100.00
80566;BME280;69915;54.862;10.730;2024-03-22T09:38:24;100886.44;;;11.24;100.00
80566;BME280;69915;54.862;10.730;2024-03-22T09:40:50;100872.75;;;11.42;100.00
80566;BME280;69915;54.862;10.730;2024-03-22T09:43:20;100867.53;;;11.46;100.00
80566;BME280;69915;54.862;10.730;2024-03-22T09:45:47;100866.69;;;11.45;100.00
80566;BME280;69915;54.862;10.730;2024-03-22T09:48:13;100859.44;;;11.55;100.00
80566;BME280;69915;54.862;10.730;2024-03-22T09:50:40;100861.09;;;11.56;100.00
80566;BME280;69915;54.862;10.730;2024-03-22T09:53:06;100864.03;;;11.78;100.00
80566;BME280;69915;54.862;10.730;2024-03-22T09:55:33;100854.63;;;11.65;100.00
80566;BME280;69915;54.862;10.730;2024-03-22T09:58:01;100853.97;;;11.55;100.00
80566;BME280;69915;54.862;10.730;2024-03-22T10:00:27;100854.69;;;11.41;100.00
80566;BME280;69915;54.862;10.730;2024-03-22T10:02:53;100856.47;;;11.32;100.00
80566;BME280;69915;54.862;10.730;2024-03-22T10:05:19;100856.59;;;11.22;100.00
80566;BME280;69915;54.862;10.730;2024-03-22T10:07:45;100862.78;;;10.90;100.00
80566;BME280;69915;54.862;10.730;2024-03-22T10:10:10;100862.47;;;10.92;100.00
80566;BME280;69915;54.862;10.730;2024-03-22T10:12:36;100875.16;;;11.07;100.00
80566;BME280;69915;54.862;10.730;2024-03-22T10:15:02;100866.06;;;11.11;100.00
80566;BME280;69915;54.862;10.730;2024-03-22T10:17:30;100860.97;;;10.81;100.00
80566;BME280;69915;54.862;10.730;2024-03-22T10:19:55;100872.59;;;10.68;100.00
80566;BME280;69915;54.862;10.730;2024-03-22T10:22:21;100871.50;;;10.69;100.00
80566;BME280;69915;54.862;10.730;2024-03-22T10:24:47;100865.22;;;10.68;100.00
80566;BME280;69915;54.862;10.730;2024-03-22T10:27:13;100869.50;;;10.51;100.00
80566;BME280;69915;54.862;10.730;2024-03-22T10:29:39;100880.63;;;10.30;100.00
80566;BME280;69915;54.862;10.730;2024-03-22T10:32:05;100880.91;;;10.29;100.00
80566;BME280;69915;54.862;10.730;2024-03-22T10:34:32;100883.41;;;10.25;100.00
80566;BME280;69915;54.862;10.730;2024-03-22T10:37:00;100878.03;;;10.10;100.00
80566;BME280;69915;54.862;10.730;2024-03-22T10:39:30;100879.97;;;10.10;100.00
80566;BME280;69915;54.862;10.730;2024-03-22T10:41:56;100868.69;;;10.21;100.00
80566;BME280;69915;54.862;10.730;2024-03-22T10:44:21;100872.50;;;10.49;100.00
80566;BME280;69915;54.862;10.730;2024-03-22T10:46:48;100872.66;;;10.63;100.00
80566;BME280;69915;54.862;10.730;2024-03-22T10:49:18;100869.81;;;10.73;100.00
80566;BME280;69915;54.862;10.730;2024-03-22T10:51:51;100865.28;;;10.87;100.00
80566;BME280;69915;54.862;10.730;2024-03-22T10:54:39;100863.06;;;10.89;100.00
80566;BME280;69915;54.862;10.730;2024-03-22T10:57:05;100862.47;;;10.92;100.00
80566;BME280;69915;54.862;10.730;2024-03-22T10:59:35;100858.97;;;10.86;100.00
80566;BME280;69915;54.862;10.730;2024-03-22T11:02:04;100858.66;;;10.69;100.00
80566;BME280;69915;54.862;10.730;2024-03-22T11:04:32;100856.34;;;10.53;100.00
80566;BME280;69915;54.862;10.730;2024-03-22T11:06:58;100856.34;;;10.53;100.00
80566;BME280;69915;54.862;10.730;2024-03-22T11:09:25;100863.56;;;10.44;100.00
80566;BME280;69915;54.862;10.730;2024-03-22T11:11:52;100871.25;;;10.42;100.00
80566;BME280;69915;54.862;10.730;2024-03-22T11:14:18;100873.88;;;10.52;100.00
80566;BME280;69915;54.862;10.730;2024-03-22T11:16:46;100866.28;;;10.44;100.00
80566;BME280;69915;54.862;10.730;2024-03-22T11:19:11;100857.00;;;10.45;100.00
80566;BME280;69915;54.862;10.730;2024-03-22T11:21:37;100864.78;;;10.32;100.00
80566;BME280;69915;54.862;10.730;2024-03-22T11:24:04;100864.19;;;10.35;100.00
80566;BME280;69915;54.862;10.730;2024-03-22T11:26:31;100862.22;;;10.41;100.00
80566;BME280;69915;54.862;10.730;2024-03-22T11:28:58;100857.41;;;10.57;100.00
80566;BME280;69915;54.862;10.730;2024-03-22T11:31:24;100850.84;;;10.58;100.00
80566;BME280;69915;54.862;10.730;2024-03-22T11:33:56;100850.31;;;10.56;100.00
80566;BME280;69915;54.862;10.730;2024-03-22T11:36:23;100856.66;;;10.51;100.00
80566;BME280;69915;54.862;10.730;2024-03-22T11:38:49;100854.66;;;10.33;100.00
80566;BME280;69915;54.862;10.730;2024-03-22T11:41:23;100842.25;;;10.17;100.00
80566;BME280;69915;54.862;10.730;2024-03-22T11:43:50;100850.22;;;10.03;100.00
80566;BME280;69915;54.862;10.730;2024-03-22T11:46:16;100851.06;;;10.04;100.00
80566;BME280;69915;54.862;10.730;2024-03-22T11:48:42;100839.19;;;10.18;100.00
80566;BME280;69915;54.862;10.730;2024-03-22T11:51:09;100841.94;;;10.18;100.00
80566;BME280;69915;54.862;10.730;2024-03-22T11:53:35;100831.56;;;10.15;100.00
80566;BME280;69915;54.862;10.730;2024-03-22T11:56:03;100837.00;;;10.20;100.00
80566;BME280;69915;54.862;10.730;2024-03-22T11:58:31;100832.13;;;10.12;100.00
80566;BME280;69915;54.862;10.730;2024-03-22T12:00:57;100833.53;;;10.15;100.00
80566;BME280;69915;54.862;10.730;2024-03-22T12:03:23;100827.22;;;10.09;100.00
80566;BME280;69915;54.862;10.730;2024-03-22T12:05:48;100831.59;;;10.10;100.00
80566;BME280;69915;54.862;10.730;2024-03-22T12:08:19;100835.97;;;10.11;100.00
80566;BME280;69915;54.862;10.730;2024-03-22T12:10:45;100820.75;;;10.05;100.00
80566;BME280;69915;54.862;10.730;2024-03-22T12:13:10;100814.66;;;10.13;100.00
80566;BME280;69915;54.862;10.730;2024-03-22T12:15:36;100821.78;;;10.09;100.00
80566;BME280;69915;54.862;10.730;2024-03-22T12:18:02;100817.88;;;10.20;100.00
80566;BME280;69915;54.862;10.730;2024-03-22T12:20:28;100819.84;;;10.10;100.00
80566;BME280;69915;54.862;10.730;2024-03-22T12:22:55;100816.75;;;10.26;100.00
80566;BME280;69915;54.862;10.730;2024-03-22T12:25:21;100808.06;;;10.19;100.00
80566;BME280;69915;54.862;10.730;2024-03-22T12:27:46;100811.31;;;10.21;100.00
80566;BME280;69915;54.862;10.730;2024-03-22T12:30:12;100812.53;;;10.34;100.00